createdAt,value
2023-09-26T00:00:08.951Z,3.47
2023-09-26T00:02:35.743Z,3.22
2023-09-26T00:05:04.311Z,3.67
2023-09-26T00:07:30.698Z,3.35
2023-09-26T00:09:57.323Z,3.35
2023-09-26T00:12:23.880Z,3.30
2023-09-26T00:14:50.346Z,3.42
2023-09-26T00:17:18.502Z,3.33
2023-09-26T00:19:44.779Z,2.92
2023-09-26T00:22:11.134Z,3.75
2023-09-26T00:24:37.413Z,3.58
2023-09-26T00:27:04.000Z,3.30
2023-09-26T00:29:32.054Z,3.78
2023-09-26T00:32:00.239Z,4.25
2023-09-26T00:34:26.940Z,3.97
2023-09-26T00:36:53.526Z,4.13
2023-09-26T00:39:19.917Z,3.78
2023-09-26T00:41:46.165Z,3.25
2023-09-26T00:44:13.201Z,3.40
2023-09-26T00:49:07.235Z,3.28
2023-09-26T00:51:33.727Z,3.53
2023-09-26T00:54:00.704Z,3.67
2023-09-26T00:58:53.203Z,3.47
2023-09-26T01:01:22.920Z,4.05
2023-09-26T01:03:49.531Z,3.55
2023-09-26T01:06:17.124Z,4.10
2023-09-26T01:08:43.396Z,3.30
2023-09-26T01:11:09.946Z,3.35
2023-09-26T01:13:36.293Z,3.53
2023-09-26T01:16:13.532Z,4.38
2023-09-26T01:18:39.859Z,3.72
2023-09-26T01:21:06.199Z,3.88
2023-09-26T01:23:32.520Z,3.63
2023-09-26T01:25:58.873Z,3.95
2023-09-26T01:28:25.171Z,3.70
2023-09-26T01:30:51.553Z,4.05
2023-09-26T01:33:20.123Z,3.55
2023-09-26T01:35:46.400Z,3.97
2023-09-26T01:38:12.698Z,3.63
2023-09-26T01:40:39.041Z,3.45
2023-09-26T01:43:05.316Z,4.22
2023-09-26T01:45:31.742Z,4.35
2023-09-26T01:47:58.656Z,4.05
2023-09-26T01:50:24.961Z,4.57
2023-09-26T01:52:51.266Z,4.47
2023-09-26T01:55:18.385Z,4.90
2023-09-26T01:57:44.721Z,4.20
2023-09-26T02:00:11.818Z,5.22
2023-09-26T02:05:04.756Z,4.50
2023-09-26T02:07:31.033Z,5.03
2023-09-26T02:09:57.335Z,4.25
2023-09-26T02:12:23.621Z,4.68
2023-09-26T02:14:50.348Z,4.93
2023-09-26T02:17:16.654Z,4.93
2023-09-26T02:19:43.872Z,4.50
2023-09-26T02:22:10.265Z,4.70
2023-09-26T02:24:36.539Z,4.78
2023-09-26T02:27:02.820Z,5.07
2023-09-26T02:29:29.447Z,4.90
2023-09-26T02:31:55.743Z,4.85
2023-09-26T02:34:23.504Z,4.85
2023-09-26T02:36:50.660Z,4.75
2023-09-26T02:39:17.042Z,4.30
2023-09-26T02:41:43.304Z,4.25
2023-09-26T02:44:09.594Z,3.67
2023-09-26T02:46:35.944Z,4.55
2023-09-26T02:49:02.716Z,4.13
2023-09-26T02:51:29.010Z,4.88
2023-09-26T02:53:55.278Z,5.72
2023-09-26T02:56:21.528Z,5.32
2023-09-26T02:58:47.788Z,5.18
2023-09-26T03:01:17.599Z,4.93
2023-09-26T03:03:44.126Z,5.93
2023-09-26T03:06:10.555Z,5.60
2023-09-26T03:08:36.872Z,5.80
2023-09-26T03:11:03.986Z,5.82
2023-09-26T03:13:36.615Z,5.85
2023-09-26T03:16:09.813Z,7.03
2023-09-26T03:18:39.241Z,7.53
2023-09-26T03:21:06.411Z,7.30
2023-09-26T03:23:32.940Z,6.10
2023-09-26T03:25:59.219Z,6.50
2023-09-26T03:28:25.592Z,6.30
2023-09-26T03:30:51.903Z,6.22
2023-09-26T03:33:18.300Z,6.10
2023-09-26T03:35:44.568Z,5.70
2023-09-26T03:38:10.831Z,5.95
2023-09-26T03:40:38.072Z,5.88
2023-09-26T03:43:04.523Z,5.95
2023-09-26T03:45:30.830Z,5.05
2023-09-26T03:47:57.238Z,5.85
2023-09-26T03:50:23.552Z,5.68
2023-09-26T03:52:49.876Z,5.20
2023-09-26T03:55:16.226Z,5.47
2023-09-26T03:57:42.516Z,4.93
2023-09-26T04:00:14.187Z,4.05
2023-09-26T04:02:40.623Z,4.63
2023-09-26T04:05:07.011Z,4.85
2023-09-26T04:07:33.328Z,5.47
2023-09-26T04:09:59.716Z,4.82
2023-09-26T04:12:26.034Z,4.38
2023-09-26T04:14:52.349Z,4.75
2023-09-26T04:17:18.615Z,5.20
2023-09-26T04:19:47.351Z,5.32
2023-09-26T04:22:13.683Z,4.60
2023-09-26T04:24:40.015Z,4.95
2023-09-26T04:27:06.768Z,4.90
2023-09-26T04:29:34.077Z,4.78
2023-09-26T04:32:00.452Z,5.38
2023-09-26T04:34:29.006Z,5.35
2023-09-26T04:36:55.637Z,4.93
2023-09-26T04:39:21.928Z,5.00
2023-09-26T04:41:48.224Z,4.57
2023-09-26T04:44:14.679Z,5.63
2023-09-26T04:46:41.249Z,5.30
2023-09-26T04:49:07.644Z,7.18
2023-09-26T04:51:33.948Z,4.78
2023-09-26T04:54:02.649Z,5.15
2023-09-26T04:56:29.034Z,4.47
2023-09-26T04:58:56.513Z,4.93
2023-09-26T05:01:26.051Z,4.60
2023-09-26T05:03:52.731Z,4.90
2023-09-26T05:06:19.169Z,5.82
2023-09-26T05:08:45.508Z,5.80
2023-09-26T05:11:15.295Z,6.07
2023-09-26T05:13:42.908Z,5.70
2023-09-26T05:16:09.892Z,4.90
2023-09-26T05:21:09.332Z,4.57
2023-09-26T05:23:36.197Z,4.40
2023-09-26T05:26:05.826Z,4.82
2023-09-26T05:28:32.170Z,5.22
2023-09-26T05:30:58.624Z,5.13
2023-09-26T05:33:25.095Z,5.57
2023-09-26T05:35:51.363Z,6.82
2023-09-26T05:38:17.599Z,5.30
2023-09-26T05:40:44.174Z,5.88
2023-09-26T05:43:10.490Z,5.75
2023-09-26T05:45:36.890Z,5.03
2023-09-26T05:48:03.308Z,5.63
2023-09-26T05:50:29.690Z,4.63
2023-09-26T05:52:56.038Z,5.00
2023-09-26T05:55:22.381Z,4.82
2023-09-26T05:57:49.169Z,5.00
2023-09-26T06:00:16.808Z,4.85
2023-09-26T06:02:43.574Z,5.28
2023-09-26T06:05:12.832Z,5.20
2023-09-26T06:07:39.370Z,6.32
2023-09-26T06:10:10.055Z,5.28
2023-09-26T06:12:37.158Z,5.07
2023-09-26T06:15:06.756Z,5.35
2023-09-26T06:17:33.261Z,6.07
2023-09-26T06:19:59.583Z,5.72
2023-09-26T06:22:25.918Z,5.85
2023-09-26T06:24:52.216Z,5.65
2023-09-26T06:27:18.726Z,5.75
2023-09-26T06:29:45.083Z,5.38
2023-09-26T06:32:11.354Z,6.22
2023-09-26T06:34:40.615Z,5.40
2023-09-26T06:37:06.990Z,5.90
2023-09-26T06:39:33.919Z,6.80
2023-09-26T06:44:26.540Z,6.82
2023-09-26T06:46:53.294Z,6.93
2023-09-26T06:51:46.480Z,7.85
2023-09-26T06:54:12.800Z,6.72
2023-09-26T06:56:39.091Z,7.47
2023-09-26T06:59:05.759Z,8.43
2023-09-26T07:01:32.223Z,9.68
2023-09-26T07:03:58.663Z,9.23
2023-09-26T07:06:25.010Z,9.45
2023-09-26T07:08:56.048Z,9.25
2023-09-26T07:11:23.772Z,10.45
2023-09-26T07:13:50.165Z,10.55
2023-09-26T07:16:16.668Z,10.07
2023-09-26T07:18:43.062Z,10.20
2023-09-26T07:21:10.740Z,10.82
2023-09-26T07:23:37.318Z,9.98
2023-09-26T07:26:07.919Z,8.70
2023-09-26T07:28:34.313Z,8.57
2023-09-26T07:31:00.668Z,7.47
2023-09-26T07:33:29.761Z,8.60
2023-09-26T07:35:56.038Z,7.70
2023-09-26T07:38:22.334Z,9.35
2023-09-26T07:40:48.690Z,6.88
2023-09-26T07:43:15.062Z,6.93
2023-09-26T07:45:41.529Z,7.20
2023-09-26T07:48:07.847Z,8.02
2023-09-26T07:50:34.522Z,6.72
2023-09-26T07:53:02.514Z,7.30
2023-09-26T07:55:31.681Z,7.43
2023-09-26T07:57:58.044Z,7.05
2023-09-26T08:00:24.381Z,7.20
2023-09-26T08:02:50.682Z,6.68
2023-09-26T08:05:16.988Z,6.82
2023-09-26T08:07:44.528Z,6.32
2023-09-26T08:10:10.910Z,6.10
2023-09-26T08:12:37.269Z,6.25
2023-09-26T08:15:03.943Z,7.03
2023-09-26T08:19:56.533Z,5.70
2023-09-26T08:22:22.865Z,5.15
2023-09-26T08:24:49.285Z,6.53
2023-09-26T08:27:17.134Z,6.00
2023-09-26T08:29:43.426Z,5.82
2023-09-26T08:32:10.600Z,6.90
2023-09-26T08:34:37.153Z,6.93
2023-09-26T08:37:03.565Z,7.53
2023-09-26T08:39:29.928Z,7.22
2023-09-26T08:41:57.684Z,7.45
2023-09-26T08:44:24.275Z,7.30
2023-09-26T08:46:51.296Z,6.93
2023-09-26T08:49:17.907Z,8.05
2023-09-26T08:51:44.261Z,7.22
2023-09-26T08:54:11.609Z,6.90
2023-09-26T08:56:39.585Z,8.02
2023-09-26T08:59:08.110Z,6.60
2023-09-26T09:01:35.809Z,6.88
2023-09-26T09:04:02.332Z,6.97
2023-09-26T09:06:28.669Z,7.25
2023-09-26T09:09:10.460Z,7.43
2023-09-26T09:11:37.142Z,7.32
2023-09-26T09:14:03.638Z,7.35
2023-09-26T09:16:30.082Z,6.93
2023-09-26T09:18:59.581Z,6.65
2023-09-26T09:21:26.466Z,6.10
2023-09-26T09:23:53.498Z,6.75
2023-09-26T09:26:22.594Z,6.80
2023-09-26T09:28:50.298Z,6.63
2023-09-26T09:31:17.318Z,6.57
2023-09-26T09:36:09.957Z,6.05
2023-09-26T09:38:36.230Z,6.10
2023-09-26T09:41:04.291Z,7.28
2023-09-26T09:43:30.591Z,6.80
2023-09-26T09:45:58.384Z,6.75
2023-09-26T09:48:26.569Z,5.88
2023-09-26T09:50:54.971Z,4.97
2023-09-26T09:53:22.400Z,5.43
2023-09-26T09:55:50.008Z,6.00
2023-09-26T09:58:18.212Z,6.13
2023-09-26T10:00:44.707Z,6.10
2023-09-26T10:03:12.917Z,6.60
2023-09-26T10:05:39.562Z,5.00
2023-09-26T10:10:33.053Z,4.80
2023-09-26T10:13:20.094Z,5.72
2023-09-26T10:16:06.843Z,4.68
2023-09-26T10:18:40.487Z,4.80
2023-09-26T10:21:25.294Z,3.83
2023-09-26T10:24:07.017Z,4.28
2023-09-26T10:26:34.272Z,4.90
2023-09-26T10:29:07.121Z,5.15
2023-09-26T10:31:34.409Z,4.93
2023-09-26T10:34:02.615Z,5.35
2023-09-26T10:36:29.647Z,4.53
2023-09-26T10:39:06.257Z,4.82
2023-09-26T10:41:37.761Z,5.00
2023-09-26T10:44:09.274Z,5.53
2023-09-26T10:46:35.726Z,4.70
2023-09-26T10:49:02.142Z,4.55
2023-09-26T10:51:28.603Z,5.65
2023-09-26T10:53:55.386Z,4.78
2023-09-26T10:56:21.904Z,4.82
2023-09-26T10:58:48.251Z,4.75
2023-09-26T11:01:14.588Z,4.80
2023-09-26T11:03:41.573Z,4.35
2023-09-26T11:06:09.855Z,4.00
2023-09-26T11:08:36.546Z,4.18
2023-09-26T11:11:03.616Z,4.10
2023-09-26T11:15:56.380Z,3.45
2023-09-26T11:18:23.942Z,3.60
2023-09-26T11:21:02.010Z,3.25
2023-09-26T11:23:41.932Z,3.72
2023-09-26T11:26:09.125Z,3.35
2023-09-26T11:28:35.968Z,3.15
2023-09-26T11:31:02.534Z,3.00
2023-09-26T11:33:29.226Z,2.80
2023-09-26T11:35:55.972Z,3.00
2023-09-26T11:38:22.245Z,3.20
2023-09-26T11:40:48.665Z,3.15
2023-09-26T11:43:15.050Z,2.63
2023-09-26T11:45:41.393Z,3.28
2023-09-26T11:48:07.728Z,3.28
2023-09-26T11:50:36.069Z,2.67
2023-09-26T11:53:02.852Z,2.88
2023-09-26T11:55:30.858Z,2.70
2023-09-26T11:57:57.159Z,2.78
2023-09-26T12:00:23.444Z,2.50
2023-09-26T12:02:50.725Z,2.70
2023-09-26T12:05:24.123Z,2.50
2023-09-26T12:07:50.700Z,2.28
2023-09-26T12:10:17.484Z,2.75
2023-09-26T12:12:43.816Z,2.47
2023-09-26T12:15:19.365Z,2.33
2023-09-26T12:17:45.788Z,2.22
2023-09-26T12:20:12.277Z,2.33
2023-09-26T12:22:38.692Z,1.90
2023-09-26T12:25:06.138Z,2.00
2023-09-26T12:27:32.458Z,2.20
2023-09-26T12:29:58.713Z,1.80
2023-09-26T12:32:25.107Z,2.03
2023-09-26T12:34:51.543Z,1.70
2023-09-26T12:37:17.836Z,1.80
2023-09-26T12:39:44.157Z,2.45
2023-09-26T12:42:10.501Z,2.05
2023-09-26T12:44:38.947Z,2.40
2023-09-26T12:47:05.334Z,2.30
2023-09-26T12:49:31.712Z,2.50
2023-09-26T12:51:58.002Z,2.45
2023-09-26T12:54:25.014Z,2.10
2023-09-26T12:56:51.360Z,2.05
2023-09-26T12:59:17.659Z,4.15
2023-09-26T13:01:44.207Z,2.35
2023-09-26T13:04:10.684Z,2.88
2023-09-26T13:06:36.967Z,2.15
2023-09-26T13:09:03.351Z,2.00
2023-09-26T13:11:30.706Z,1.88
2023-09-26T13:13:57.029Z,2.00
2023-09-26T13:16:23.549Z,2.50
2023-09-26T13:18:51.604Z,2.15
2023-09-26T13:21:19.156Z,2.38
2023-09-26T13:23:46.511Z,2.00
2023-09-26T13:26:12.858Z,1.90
2023-09-26T13:28:39.182Z,1.80
2023-09-26T13:31:05.573Z,1.88
2023-09-26T13:33:32.166Z,1.95
2023-09-26T13:35:58.453Z,1.80
2023-09-26T13:38:24.796Z,1.80
2023-09-26T13:40:51.119Z,1.90
2023-09-26T13:43:17.436Z,2.03
2023-09-26T13:45:43.694Z,1.70
2023-09-26T13:48:11.257Z,1.90
2023-09-26T13:50:39.576Z,1.77
2023-09-26T13:53:07.399Z,1.90
2023-09-26T13:55:33.979Z,2.08
2023-09-26T13:58:00.338Z,2.33
2023-09-26T14:00:28.637Z,1.70
2023-09-26T14:02:55.119Z,2.03
2023-09-26T14:05:24.057Z,1.90
2023-09-26T14:07:50.720Z,2.20
2023-09-26T14:10:17.494Z,2.00
2023-09-26T14:12:43.846Z,1.85
2023-09-26T14:15:10.280Z,1.95
2023-09-26T14:17:36.988Z,1.92
2023-09-26T14:20:04.798Z,2.00
2023-09-26T14:22:31.126Z,1.85
2023-09-26T14:24:57.395Z,1.60
2023-09-26T14:27:23.710Z,2.00
2023-09-26T14:29:50.019Z,1.70
2023-09-26T14:32:16.405Z,2.03
2023-09-26T14:34:43.062Z,1.70
2023-09-26T14:37:09.522Z,2.03
2023-09-26T14:39:35.832Z,2.20
2023-09-26T14:42:02.101Z,1.92
2023-09-26T14:44:29.103Z,2.05
2023-09-26T14:46:55.715Z,1.80
2023-09-26T14:49:22.125Z,1.90
2023-09-26T14:51:48.525Z,1.85
2023-09-26T14:54:14.811Z,2.10
2023-09-26T14:56:43.537Z,2.17
2023-09-26T14:59:10.918Z,1.95
2023-09-26T15:01:37.435Z,2.13
2023-09-26T15:04:03.807Z,1.83
2023-09-26T15:06:30.153Z,1.83
2023-09-26T15:08:56.579Z,1.80
2023-09-26T15:11:22.926Z,2.05
2023-09-26T15:13:49.361Z,1.80
2023-09-26T15:16:15.754Z,1.92
2023-09-26T15:18:42.990Z,2.10
2023-09-26T15:21:09.477Z,2.13
2023-09-26T15:23:35.742Z,2.03
2023-09-26T15:26:04.294Z,2.03
2023-09-26T15:28:30.617Z,1.85
2023-09-26T15:30:57.330Z,2.30
2023-09-26T15:33:23.750Z,2.17
2023-09-26T15:35:50.284Z,1.90
2023-09-26T15:38:16.670Z,1.67
2023-09-26T15:40:43.082Z,2.08
2023-09-26T15:43:09.414Z,1.67
2023-09-26T15:45:35.802Z,2.10
2023-09-26T15:48:02.310Z,1.90
2023-09-26T15:50:31.776Z,2.00
2023-09-26T15:52:58.518Z,2.08
2023-09-26T15:55:25.088Z,2.03
2023-09-26T15:57:51.967Z,1.88
2023-09-26T16:00:21.570Z,2.08
2023-09-26T16:02:47.946Z,1.90
2023-09-26T16:05:14.380Z,2.60
2023-09-26T16:10:07.151Z,1.98
2023-09-26T16:12:33.557Z,2.25
2023-09-26T16:15:00.679Z,4.07
2023-09-26T16:17:27.054Z,2.58
2023-09-26T16:22:19.850Z,2.38
2023-09-26T16:24:46.122Z,2.40
2023-09-26T16:27:12.455Z,2.20
2023-09-26T16:29:38.807Z,2.45
2023-09-26T16:32:06.013Z,2.47
2023-09-26T16:34:32.960Z,2.30
2023-09-26T16:36:59.286Z,2.47
2023-09-26T16:39:25.606Z,2.35
2023-09-26T16:41:51.919Z,2.53
2023-09-26T16:44:18.246Z,2.65
2023-09-26T16:46:44.682Z,3.70
2023-09-26T16:49:11.456Z,5.53
2023-09-26T16:51:37.761Z,5.85
2023-09-26T16:54:04.256Z,6.28
2023-09-26T16:56:30.974Z,5.38
2023-09-26T16:58:57.367Z,4.13
2023-09-26T17:01:23.908Z,3.85
2023-09-26T17:03:50.474Z,3.60
2023-09-26T17:08:43.129Z,2.88
2023-09-26T17:11:09.798Z,2.83
2023-09-26T17:16:02.357Z,2.63
2023-09-26T17:18:29.044Z,3.97
2023-09-26T17:23:22.211Z,5.63
2023-09-26T17:28:14.995Z,6.72
2023-09-26T17:30:41.276Z,7.90
2023-09-26T17:33:07.602Z,8.25
2023-09-26T17:35:33.889Z,6.43
2023-09-26T17:38:00.429Z,7.45
2023-09-26T17:40:27.102Z,4.65
2023-09-26T17:42:53.974Z,3.63
2023-09-26T17:45:20.377Z,4.40
2023-09-26T17:47:46.676Z,4.13
2023-09-26T17:50:13.013Z,5.43
2023-09-26T17:52:39.396Z,7.00
2023-09-26T17:55:06.051Z,7.95
2023-09-26T17:57:32.581Z,7.57
2023-09-26T17:59:58.910Z,6.75
2023-09-26T18:02:25.378Z,6.85
2023-09-26T18:04:55.486Z,7.50
2023-09-26T18:07:22.152Z,7.35
2023-09-26T18:09:48.490Z,6.15
2023-09-26T18:12:14.824Z,4.38
2023-09-26T18:14:41.088Z,3.80
2023-09-26T18:17:08.308Z,3.97
2023-09-26T18:19:36.185Z,3.50
2023-09-26T18:22:02.439Z,2.92
2023-09-26T18:24:28.750Z,3.72
2023-09-26T18:26:54.998Z,2.75
2023-09-26T18:29:21.303Z,2.90
2023-09-26T18:31:47.768Z,2.60
2023-09-26T18:34:14.195Z,2.75
2023-09-26T18:36:40.502Z,2.47
2023-09-26T18:39:06.817Z,2.20
2023-09-26T18:41:33.170Z,3.00
2023-09-26T18:43:59.479Z,2.88
2023-09-26T18:46:25.838Z,3.10
2023-09-26T18:48:52.090Z,3.05
2023-09-26T18:51:18.452Z,3.30
2023-09-26T18:53:45.446Z,2.60
2023-09-26T18:56:13.158Z,2.90
2023-09-26T18:58:39.461Z,3.67
2023-09-26T19:01:05.841Z,3.20
2023-09-26T19:03:32.360Z,2.67
2023-09-26T19:06:01.061Z,3.30
2023-09-26T19:08:27.430Z,3.17
2023-09-26T19:10:56.969Z,3.55
2023-09-26T19:13:23.372Z,3.10
2023-09-26T19:15:49.712Z,3.38
2023-09-26T19:18:16.796Z,3.03
2023-09-26T19:20:43.151Z,2.67
2023-09-26T19:23:09.514Z,3.05
2023-09-26T19:25:38.820Z,3.20
2023-09-26T19:28:05.410Z,3.08
2023-09-26T19:30:31.793Z,3.42
2023-09-26T19:32:58.070Z,3.03
2023-09-26T19:35:24.490Z,3.50
2023-09-26T19:37:50.821Z,2.90
2023-09-26T19:40:17.097Z,3.55
2023-09-26T19:42:43.386Z,3.50
2023-09-26T19:45:09.735Z,3.38
2023-09-26T19:47:36.153Z,3.45
2023-09-26T19:50:02.554Z,3.08
2023-09-26T19:52:28.867Z,3.88
2023-09-26T19:54:55.093Z,3.60
2023-09-26T19:57:21.382Z,3.85
2023-09-26T19:59:47.647Z,4.53
2023-09-26T20:02:14.020Z,4.68
2023-09-26T20:04:40.440Z,3.95
2023-09-26T20:07:06.979Z,4.47
2023-09-26T20:09:33.440Z,4.22
2023-09-26T20:11:59.904Z,4.50
2023-09-26T20:14:26.223Z,4.53
2023-09-26T20:16:52.592Z,4.22
2023-09-26T20:19:21.796Z,3.30
2023-09-26T20:21:48.073Z,3.03
2023-09-26T20:24:14.331Z,3.55
2023-09-26T20:26:40.653Z,3.50
2023-09-26T20:29:06.937Z,3.55
2023-09-26T20:31:33.298Z,2.78
2023-09-26T20:33:59.587Z,3.45
2023-09-26T20:36:25.869Z,3.13
2023-09-26T20:38:52.292Z,3.40
2023-09-26T20:41:18.828Z,3.70
2023-09-26T20:43:45.329Z,3.00
2023-09-26T20:46:11.902Z,3.47
2023-09-26T20:51:05.636Z,3.22
2023-09-26T20:53:32.079Z,3.42
2023-09-26T20:56:01.780Z,3.70
2023-09-26T20:58:28.040Z,3.20
2023-09-26T21:00:54.341Z,3.45
2023-09-26T21:03:20.746Z,3.55
2023-09-26T21:05:49.271Z,3.67
2023-09-26T21:08:16.035Z,3.25
2023-09-26T21:10:42.330Z,3.15
2023-09-26T21:13:08.612Z,3.33
2023-09-26T21:15:34.901Z,3.10
2023-09-26T21:18:01.312Z,3.50
2023-09-26T21:20:27.686Z,3.33
2023-09-26T21:22:54.006Z,3.33
2023-09-26T21:25:20.346Z,3.70
2023-09-26T21:27:46.634Z,3.03
2023-09-26T21:30:13.219Z,3.70
2023-09-26T21:32:39.669Z,3.03
2023-09-26T21:35:06.478Z,2.95
2023-09-26T21:37:32.930Z,3.15
2023-09-26T21:39:59.413Z,3.80
2023-09-26T21:42:25.695Z,3.78
2023-09-26T21:44:51.996Z,3.40
2023-09-26T21:47:18.457Z,3.50
2023-09-26T21:49:44.810Z,3.15
2023-09-26T21:52:11.140Z,3.63
2023-09-26T21:54:37.527Z,3.22
2023-09-26T21:57:03.923Z,3.30
2023-09-26T21:59:30.280Z,3.67
2023-09-26T22:01:56.705Z,3.60
2023-09-26T22:04:23.204Z,3.30
2023-09-26T22:06:50.246Z,3.53
2023-09-26T22:09:16.766Z,3.40
2023-09-26T22:11:43.182Z,4.03
2023-09-26T22:14:10.711Z,3.90
2023-09-26T22:16:37.126Z,4.05
2023-09-26T22:19:04.188Z,3.95
2023-09-26T22:21:30.625Z,4.10
2023-09-26T22:23:57.069Z,4.32
2023-09-26T22:26:23.338Z,3.70
2023-09-26T22:28:49.717Z,4.53
2023-09-26T22:31:16.056Z,4.53
2023-09-26T22:36:09.098Z,4.15
2023-09-26T22:38:35.384Z,3.97
2023-09-26T22:41:01.709Z,4.45
2023-09-26T22:43:28.041Z,4.68
2023-09-26T22:45:54.538Z,3.60
2023-09-26T22:48:20.806Z,3.50
2023-09-26T22:50:48.241Z,3.35
2023-09-26T22:53:14.714Z,3.60
2023-09-26T22:55:41.065Z,4.60
2023-09-26T22:58:07.839Z,3.78
2023-09-26T23:00:34.144Z,3.78
2023-09-26T23:03:00.714Z,3.60
2023-09-26T23:05:27.182Z,3.40
2023-09-26T23:07:53.569Z,3.75
2023-09-26T23:10:19.841Z,3.45
2023-09-26T23:12:46.097Z,3.33
2023-09-26T23:15:12.429Z,3.97
2023-09-26T23:17:38.984Z,3.78
2023-09-26T23:20:08.593Z,3.53
2023-09-26T23:22:35.340Z,3.58
2023-09-26T23:25:06.020Z,3.42
2023-09-26T23:27:32.607Z,3.90
2023-09-26T23:29:58.905Z,4.20
2023-09-26T23:32:26.158Z,3.45
2023-09-26T23:34:52.943Z,3.70
2023-09-26T23:37:19.339Z,3.72
2023-09-26T23:39:45.614Z,3.20
2023-09-26T23:42:11.853Z,3.65
2023-09-26T23:44:38.447Z,3.45
2023-09-26T23:47:05.547Z,3.38
2023-09-26T23:49:34.238Z,3.58
2023-09-26T23:52:00.543Z,3.65
2023-09-26T23:54:26.804Z,2.90
2023-09-26T23:56:53.296Z,3.90
2023-09-26T23:59:19.586Z,4.20
